logo
Search for airport 
image banner adimage banner adimage banner ad
image banner ad

YVVL - Violet Vale Airport

Located in Yarraden, Australia

ICAO - YVVL, IATA -

Data provided by Airmate  

General information

Coordinates: S14°44'1" E143°35'20"
Elevation is 206 feet MSL.
Magnetic variation is 6° East
View others Airports in Queensland

Operational data

Special qualification required
Current time UTC:
Current local time:
Weather at : - ( 0 km )
METAR: EKYT 280214Z AUTO 07002KT 5000 BKN020/// BKN200/// 13/12 Q1015
View NOTAMs / SUP AIP / TFR affecting this airport [VIEW]
Communications frequencies: [VIEW]

Runways:

RWY identifierQFULength (ft)Width (ft)SurfaceLDA (ft)
11111°263860DIRT
29291°263860DIRT

Airport contact information

Address: Yarraden Australia

Satellite view of YVVL